Time;durP1;ratioP1;P1;durP2;ratioP2;P2;SDS_P1;SDS_P2;PMS_P1;PMS_P2;Temp;Humidity;BMP_temperature;BMP_pressure;BME280_temperature;BME280_humidity;BME280_pressure;Samples;Min_cycle;Max_cycle;Signal;HPM_P1;HPM_P2
2023/08/26 00:00:38;;;;;;;;;;;;;;;22.53;54.91;100941.19;4147847;28;19933;-58
2023/08/26 00:02:40;;;;;;;;;;;;;;;22.53;55.01;100941.19;4147819;28;19932;-58
2023/08/26 00:04:41;;;;;;;;;;;;;;;22.52;54.67;100934.13;4147826;28;19925;-58
2023/08/26 00:06:43;;;;;;;;;;;;;;;22.54;54.86;100939.34;4147516;28;19925;-58
2023/08/26 00:08:44;;;;;;;;;;;;;;;22.53;54.47;100937.66;4147415;28;20284;-58
2023/08/26 00:10:46;;;;;;;;;;;;;;;22.51;54.86;100927.06;4147695;28;20407;-57
2023/08/26 00:12:47;;;;;;;;;;;;;;;22.51;54.80;100927.06;4147612;28;20442;-58
2023/08/26 00:14:49;;;;;;;;;;;;;;;22.52;54.73;100935.94;4147832;28;19969;-58
2023/08/26 00:16:51;;;;;;;;;;;;;;;22.52;54.60;100935.94;4146934;28;19944;-59
2023/08/26 00:18:52;;;;;;;;;;;;;;;22.51;54.34;100937.78;4147625;28;19926;-58
2023/08/26 00:20:56;;;;;;;;;;;;;;;22.50;54.44;100936.09;4147694;28;20016;-59
2023/08/26 00:22:58;;;;;;;;;;;;;;;22.49;54.71;100929.88;4147647;28;19926;-58
2023/08/26 00:25:00;;;;;;;;;;;;;;;22.48;54.50;100928.19;4146867;28;19984;-58
2023/08/26 00:27:02;;;;;;;;;;;;;;;22.48;54.57;100925.50;4146677;28;19997;-58
2023/08/26 00:29:03;;;;;;;;;;;;;;;22.48;54.52;100922.81;4147422;28;20367;-59
2023/08/26 00:31:05;;;;;;;;;;;;;;;22.48;54.30;100930.84;4147610;28;19932;-58
2023/08/26 00:33:07;;;;;;;;;;;;;;;22.48;54.38;100919.31;4147432;28;19972;-58
2023/08/26 00:35:09;;;;;;;;;;;;;;;22.48;54.33;100933.53;4146361;28;19925;-58
2023/08/26 00:37:12;;;;;;;;;;;;;;;22.46;54.50;100916.72;4145333;28;19952;-59
2023/08/26 00:39:13;;;;;;;;;;;;;;;22.47;54.34;100918.44;4147138;28;19926;-58
2023/08/26 00:41:15;;;;;;;;;;;;;;;22.46;54.54;100913.19;4146255;28;19930;-58
2023/08/26 00:43:16;;;;;;;;;;;;;;;22.46;54.46;100915.88;4146156;28;19994;-58
2023/08/26 00:45:18;;;;;;;;;;;;;;;22.45;54.26;100920.38;4147611;28;19932;-58
2023/08/26 00:47:19;;;;;;;;;;;;;;;22.45;54.20;100917.69;4146592;28;19929;-59
2023/08/26 00:49:22;;;;;;;;;;;;;;;22.44;54.13;100918.69;4147453;28;19933;-59
2023/08/26 00:51:23;;;;;;;;;;;;;;;22.44;54.20;100913.34;4147425;28;20028;-58
2023/08/26 00:53:25;;;;;;;;;;;;;;;22.44;54.45;100916.03;4147246;28;19943;-57
2023/08/26 00:55:26;;;;;;;;;;;;;;;22.44;54.05;100912.47;4147252;28;19976;-57
2023/08/26 00:57:28;;;;;;;;;;;;;;;22.44;54.21;100916.03;4146799;28;20363;-58
2023/08/26 00:59:30;;;;;;;;;;;;;;;22.42;54.30;100903.69;4147189;28;20336;-58
2023/08/26 01:01:32;;;;;;;;;;;;;;;22.41;54.50;100908.22;4147338;28;19932;-58
2023/08/26 01:03:33;;;;;;;;;;;;;;;22.41;53.94;100905.53;4147422;28;19925;-58
2023/08/26 01:05:35;;;;;;;;;;;;;;;22.41;54.10;100910.06;4147278;28;20020;-58
2023/08/26 01:07:37;;;;;;;;;;;;;;;22.40;54.12;100909.19;4146142;28;19983;-59
2023/08/26 01:09:38;;;;;;;;;;;;;;;22.41;54.09;100910.06;4147345;28;20410;-58
2023/08/26 01:12:06;;;;;;;;;;;;;;;22.40;54.09;100909.19;4146740;28;19932;-60
2023/08/26 01:14:12;;;;;;;;;;;;;;;22.38;54.02;100900.41;4147256;28;20315;-59
2023/08/26 01:16:14;;;;;;;;;;;;;;;22.39;54.15;100906.66;4147264;28;20309;-59
2023/08/26 01:18:16;;;;;;;;;;;;;;;22.38;53.98;100903.09;4146467;28;20023;-59
2023/08/26 01:20:17;;;;;;;;;;;;;;;22.38;54.10;100903.09;4147205;28;19978;-58
2023/08/26 01:22:22;;;;;;;;;;;;;;;22.37;54.29;100906.75;4146828;28;20420;-58
2023/08/26 01:24:24;;;;;;;;;;;;;;;22.37;54.03;100920.16;4147102;28;20024;-58
2023/08/26 01:26:26;;;;;;;;;;;;;;;22.37;54.03;100913.94;4147226;28;19941;-58
2023/08/26 01:28:27;;;;;;;;;;;;;;;22.36;54.31;100910.41;4146336;28;19926;-58
2023/08/26 01:30:29;;;;;;;;;;;;;;;22.37;54.11;100903.22;4147023;28;20028;-58
2023/08/26 01:32:37;;;;;;;;;;;;;;;22.36;54.07;100910.41;4145786;28;19935;-57
2023/08/26 01:34:39;;;;;;;;;;;;;;;22.35;54.07;100911.38;4147182;28;19931;-58
2023/08/26 01:36:43;;;;;;;;;;;;;;;22.35;54.21;100908.69;4147677;28;19965;-59
2023/08/26 01:38:45;;;;;;;;;;;;;;;22.34;54.10;100913.19;4149172;28;19961;-58
2023/08/26 01:40:56;;;;;;;;;;;;;;;22.32;53.92;100909.81;4149955;28;19926;-58
2023/08/26 01:42:58;;;;;;;;;;;;;;;22.32;54.04;100907.13;4150234;28;19987;-58
2023/08/26 01:45:00;;;;;;;;;;;;;;;22.31;53.98;100905.41;4150005;28;20408;-58
2023/08/26 01:47:02;;;;;;;;;;;;;;;22.32;54.35;100898.22;4149519;28;19925;-59
2023/08/26 01:49:04;;;;;;;;;;;;;;;22.30;54.09;100903.72;4148418;28;19964;-58
2023/08/26 01:51:06;;;;;;;;;;;;;;;22.31;53.99;100896.53;4149450;28;19961;-58
2023/08/26 01:53:08;;;;;;;;;;;;;;;22.29;54.40;100899.34;4148865;28;19957;-58
2023/08/26 01:55:10;;;;;;;;;;;;;;;22.29;54.10;100898.50;4150022;28;19929;-58
2023/08/26 01:57:11;;;;;;;;;;;;;;;22.29;54.05;100898.50;4149239;28;19925;-59
2023/08/26 01:59:13;;;;;;;;;;;;;;;22.29;53.98;100901.16;4149804;28;19933;-58
2023/08/26 02:01:14;;;;;;;;;;;;;;;22.29;54.07;100898.50;4149552;28;20307;-58
2023/08/26 02:03:16;;;;;;;;;;;;;;;22.28;53.95;100894.94;4149851;28;20302;-58
2023/08/26 02:05:17;;;;;;;;;;;;;;;22.27;54.01;100893.25;4149215;28;19968;-58
2023/08/26 02:07:19;;;;;;;;;;;;;;;22.27;53.94;100887.91;4148936;28;20008;-58
2023/08/26 02:09:20;;;;;;;;;;;;;;;22.27;54.00;100885.22;4149618;28;19933;-58
2023/08/26 02:11:22;;;;;;;;;;;;;;;22.27;53.95;100890.59;4149637;28;20377;-58
2023/08/26 02:13:24;;;;;;;;;;;;;;;22.26;53.99;100883.53;4149330;28;19929;-58
2023/08/26 02:15:26;;;;;;;;;;;;;;;22.26;54.08;100879.97;4149446;28;19980;-57
2023/08/26 02:17:27;;;;;;;;;;;;;;;22.26;54.12;100877.28;4148707;28;19936;-58
2023/08/26 02:19:29;;;;;;;;;;;;;;;22.25;54.04;100879.13;4149477;28;20368;-59
2023/08/26 02:21:30;;;;;;;;;;;;;;;22.25;54.25;100880.94;4149204;28;19968;-59
2023/08/26 02:23:32;;;;;;;;;;;;;;;22.24;53.88;100879.28;4149457;28;20291;-59
2023/08/26 02:25:33;;;;;;;;;;;;;;;22.23;53.80;100880.25;4149521;28;20023;-58
2023/08/26 02:27:35;;;;;;;;;;;;;;;22.24;53.94;100882.78;4148209;28;19930;-58
2023/08/26 02:29:37;;;;;;;;;;;;;;;22.22;53.91;100884.75;4149312;28;19979;-58
2023/08/26 02:31:39;;;;;;;;;;;;;;;22.21;53.79;100875.00;4149368;28;19937;-57
2023/08/26 02:33:40;;;;;;;;;;;;;;;22.22;53.80;100878.53;4149259;28;19965;-58
2023/08/26 02:35:48;;;;;;;;;;;;;;;22.21;53.81;100872.31;4148189;28;19932;-58
2023/08/26 02:37:49;;;;;;;;;;;;;;;22.21;53.75;100885.72;4148356;28;19940;-60
2023/08/26 02:39:51;;;;;;;;;;;;;;;22.20;53.82;100873.31;4149167;28;19929;-58
2023/08/26 02:41:52;;;;;;;;;;;;;;;22.20;54.04;100867.97;4149105;28;20379;-57
2023/08/26 02:43:54;;;;;;;;;;;;;;;22.20;53.87;100873.31;4149119;28;19925;-57
2023/08/26 02:45:56;;;;;;;;;;;;;;;22.20;53.65;100872.44;4149370;28;19925;-58
2023/08/26 02:47:58;;;;;;;;;;;;;;;22.18;53.66;100864.53;4147706;28;19961;-59
2023/08/26 02:50:00;;;;;;;;;;;;;;;22.17;53.66;100863.69;4148400;28;19933;-59
2023/08/26 02:52:03;;;;;;;;;;;;;;;22.17;53.75;100863.69;4148802;28;19930;-59
2023/08/26 02:54:05;;;;;;;;;;;;;;;22.17;53.64;100869.03;4149057;28;19925;-58
2023/08/26 02:56:07;;;;;;;;;;;;;;;22.17;53.80;100862.84;4148963;28;19967;-58
2023/08/26 02:58:08;;;;;;;;;;;;;;;22.15;53.55;100862.97;4147929;28;20513;-59
2023/08/26 03:00:10;;;;;;;;;;;;;;;22.16;53.57;100862.00;4148839;28;20383;-59
2023/08/26 03:02:11;;;;;;;;;;;;;;;22.16;53.50;100855.78;4148850;28;19972;-58
2023/08/26 03:04:13;;;;;;;;;;;;;;;22.15;53.65;100857.63;4148339;28;19948;-59
2023/08/26 03:06:15;;;;;;;;;;;;;;;22.16;53.76;100850.41;4148769;28;19930;-58
2023/08/26 03:08:16;;;;;;;;;;;;;;;22.14;53.79;100850.56;4147795;28;19929;-59
2023/08/26 03:10:18;;;;;;;;;;;;;;;22.14;53.51;100852.38;4148779;28;19933;-59
2023/08/26 03:12:19;;;;;;;;;;;;;;;22.14;53.83;100852.38;4148624;28;19931;-60
2023/08/26 03:14:21;;;;;;;;;;;;;;;22.13;53.79;100851.53;4148536;28;19949;-59
2023/08/26 03:16:22;;;;;;;;;;;;;;;22.11;53.54;100853.47;4148509;28;19972;-59
2023/08/26 03:18:24;;;;;;;;;;;;;;;22.12;53.44;100855.19;4147376;28;19926;-59
2023/08/26 03:20:26;;;;;;;;;;;;;;;22.12;53.44;100852.50;4148573;28;20288;-59
2023/08/26 03:22:27;;;;;;;;;;;;;;;22.11;53.61;100850.78;4148571;28;20347;-59
2023/08/26 03:24:29;;;;;;;;;;;;;;;22.11;53.54;100852.63;4148500;28;19932;-58
2023/08/26 03:26:30;;;;;;;;;;;;;;;22.10;53.73;100845.56;4148503;28;19925;-59
2023/08/26 03:28:32;;;;;;;;;;;;;;;22.10;53.59;100845.56;4147520;28;19929;-59
2023/08/26 03:30:34;;;;;;;;;;;;;;;22.08;53.27;100840.34;4148310;28;19963;-59
2023/08/26 03:32:36;;;;;;;;;;;;;;;22.09;53.48;100842.06;4148078;28;20015;-58
2023/08/26 03:34:37;;;;;;;;;;;;;;;22.08;53.75;100845.72;4148259;28;19968;-59
2023/08/26 03:36:39;;;;;;;;;;;;;;;22.08;53.32;100842.16;4148465;28;19972;-58
2023/08/26 03:38:40;;;;;;;;;;;;;;;22.07;53.25;100844.00;4147267;28;19929;-58
2023/08/26 03:40:42;;;;;;;;;;;;;;;22.09;53.61;100851.91;4148220;28;20291;-58
2023/08/26 03:42:44;;;;;;;;;;;;;;;22.08;53.45;100852.88;4148377;28;19980;-58
2023/08/26 03:44:46;;;;;;;;;;;;;;;22.06;53.57;100850.34;4148318;28;19925;-59
2023/08/26 03:46:47;;;;;;;;;;;;;;;22.07;53.28;100843.16;4147801;28;20412;-58
2023/08/26 03:48:49;;;;;;;;;;;;;;;22.06;53.58;100844.13;4147223;28;20008;-59
2023/08/26 03:50:51;;;;;;;;;;;;;;;22.05;53.26;100840.59;4148148;28;20399;-59
2023/08/26 03:52:52;;;;;;;;;;;;;;;22.05;53.63;100843.28;4148241;28;19957;-59
2023/08/26 03:54:55;;;;;;;;;;;;;;;22.05;53.26;100845.94;4148118;28;19984;-58
2023/08/26 03:56:56;;;;;;;;;;;;;;;22.05;53.62;100845.09;4147950;28;19956;-58
2023/08/26 03:58:58;;;;;;;;;;;;;;;22.04;53.52;100841.56;4147072;28;19929;-59
2023/08/26 04:01:06;;;;;;;;;;;;;;;22.05;53.26;100845.09;4146590;28;20319;-60
2023/08/26 04:03:08;;;;;;;;;;;;;;;22.02;53.29;100847.06;4147796;28;20347;-59
2023/08/26 04:05:10;;;;;;;;;;;;;;;22.02;53.76;100844.38;4147904;28;20419;-59
2023/08/26 04:07:11;;;;;;;;;;;;;;;22.01;53.32;100842.66;4147964;28;19932;-59
2023/08/26 04:09:13;;;;;;;;;;;;;;;22.00;53.60;100845.47;4147177;28;19955;-58
2023/08/26 04:11:16;;;;;;;;;;;;;;;22.00;53.45;100846.31;4147876;28;19925;-59
2023/08/26 04:13:20;;;;;;;;;;;;;;;21.99;53.29;100839.28;4147502;28;20381;-58
2023/08/26 04:15:22;;;;;;;;;;;;;;;21.99;53.41;100847.31;4147574;28;20287;-57
2023/08/26 04:17:24;;;;;;;;;;;;;;;21.98;53.68;100847.44;4147278;28;20016;-58
2023/08/26 04:19:25;;;;;;;;;;;;;;;21.98;53.56;100848.28;4146816;28;19926;-59
2023/08/26 04:21:27;;;;;;;;;;;;;;;21.97;53.46;100851.06;4147690;28;19929;-59
2023/08/26 04:23:30;;;;;;;;;;;;;;;21.97;53.68;100849.25;4147554;28;19965;-58
2023/08/26 04:25:32;;;;;;;;;;;;;;;21.97;53.64;100848.41;4147599;28;19930;-59
2023/08/26 04:27:34;;;;;;;;;;;;;;;21.96;53.42;100850.25;4147433;28;20322;-58
2023/08/26 04:29:35;;;;;;;;;;;;;;;21.96;53.74;100838.69;4146881;28;19926;-59
2023/08/26 04:31:37;;;;;;;;;;;;;;;21.95;53.81;100848.53;4147172;28;19968;-59
2023/08/26 04:33:38;;;;;;;;;;;;;;;21.95;53.49;100842.34;4147527;28;19926;-59
2023/08/26 04:35:40;;;;;;;;;;;;;;;21.94;53.35;100835.28;4147527;28;19926;-59
2023/08/26 04:37:41;;;;;;;;;;;;;;;21.94;53.44;100835.28;4146876;28;20392;-59
2023/08/26 04:39:43;;;;;;;;;;;;;;;21.93;53.74;100838.94;4147204;28;19934;-59
2023/08/26 04:41:44;;;;;;;;;;;;;;;21.93;53.46;100837.09;4147525;28;20027;-59
2023/08/26 04:43:47;;;;;;;;;;;;;;;21.94;53.62;100846.00;4147661;28;20007;-58
2023/08/26 04:45:48;;;;;;;;;;;;;;;21.93;53.71;100844.28;4147162;28;19964;-59
2023/08/26 04:47:50;;;;;;;;;;;;;;;21.92;53.48;100850.59;4146789;28;20419;-59
2023/08/26 04:49:51;;;;;;;;;;;;;;;21.92;53.47;100850.59;4147505;28;19932;-58
2023/08/26 04:51:54;;;;;;;;;;;;;;;21.92;53.35;100847.94;4147421;28;19929;-58
2023/08/26 04:53:55;;;;;;;;;;;;;;;21.91;53.29;100840.88;4147522;28;20391;-59
2023/08/26 04:55:57;;;;;;;;;;;;;;;21.91;53.34;100841.75;4147450;28;19990;-59
2023/08/26 04:57:59;;;;;;;;;;;;;;;21.90;53.50;100850.75;4146481;28;20020;-58
2023/08/26 05:00:01;;;;;;;;;;;;;;;21.90;53.40;100845.38;4146711;28;20012;-59
2023/08/26 05:02:06;;;;;;;;;;;;;;;21.89;53.53;100854.38;4147309;28;19932;-59
2023/08/26 05:04:07;;;;;;;;;;;;;;;21.89;53.34;100849.03;4147195;28;20426;-59
2023/08/26 05:06:09;;;;;;;;;;;;;;;21.89;53.26;100848.19;4147393;28;20060;-59
2023/08/26 05:08:10;;;;;;;;;;;;;;;21.89;53.29;100843.69;4146554;28;19926;-59
2023/08/26 05:10:12;;;;;;;;;;;;;;;21.89;53.53;100853.56;4147231;28;20029;-58
2023/08/26 05:12:13;;;;;;;;;;;;;;;21.88;53.10;100859.88;4148933;28;19949;-59
2023/08/26 05:14:15;;;;;;;;;;;;;;;21.88;53.02;100859.88;4150167;28;19925;-59
2023/08/26 05:16:16;;;;;;;;;;;;;;;21.88;53.30;100867.91;4150353;28;20357;-58
2023/08/26 05:18:18;;;;;;;;;;;;;;;21.87;53.15;100864.38;4149476;28;20032;-59
2023/08/26 05:20:20;;;;;;;;;;;;;;;21.86;53.11;100866.22;4149980;28;19929;-58
2023/08/26 05:22:22;;;;;;;;;;;;;;;21.88;53.09;100870.59;4150515;28;20028;-59
2023/08/26 05:24:23;;;;;;;;;;;;;;;21.86;53.52;100865.38;4150490;28;19929;-58
2023/08/26 05:26:25;;;;;;;;;;;;;;;21.86;53.14;100868.03;4150304;28;20032;-58
2023/08/26 05:28:26;;;;;;;;;;;;;;;21.85;53.21;100869.84;4149113;28;20177;-59
2023/08/26 05:30:28;;;;;;;;;;;;;;;21.85;53.10;100872.53;4150121;28;20410;-59
2023/08/26 05:32:30;;;;;;;;;;;;;;;21.85;53.44;100875.22;4150415;28;19932;-58
2023/08/26 05:34:31;;;;;;;;;;;;;;;21.85;53.05;100871.69;4150552;28;20016;-58
2023/08/26 05:36:33;;;;;;;;;;;;;;;21.85;53.01;100872.53;4150424;28;20353;-58
2023/08/26 05:38:34;;;;;;;;;;;;;;;21.84;53.20;100872.66;4149218;28;19925;-58
2023/08/26 05:40:36;;;;;;;;;;;;;;;21.84;53.15;100875.34;4150096;28;19944;-58
2023/08/26 05:42:37;;;;;;;;;;;;;;;21.83;53.22;100866.44;4149730;28;20372;-57
2023/08/26 05:44:39;;;;;;;;;;;;;;;21.83;53.26;100865.59;4150116;28;19980;-57
2023/08/26 05:46:41;;;;;;;;;;;;;;;21.81;52.97;100857.72;4150154;28;19933;-58
2023/08/26 05:48:42;;;;;;;;;;;;;;;21.82;52.91;100855.88;4148932;28;20387;-59
2023/08/26 05:50:44;;;;;;;;;;;;;;;21.82;53.45;100856.72;4149826;28;19930;-59
2023/08/26 05:52:45;;;;;;;;;;;;;;;21.81;53.10;100862.19;4149973;28;19925;-59
2023/08/26 05:54:47;;;;;;;;;;;;;;;21.82;52.94;100861.22;4149804;28;20362;-59
2023/08/26 05:56:48;;;;;;;;;;;;;;;21.82;53.04;100863.91;4149923;28;20442;-59
2023/08/26 05:58:50;;;;;;;;;;;;;;;21.81;53.14;100863.06;4148432;28;20304;-59
2023/08/26 06:00:52;;;;;;;;;;;;;;;21.81;53.27;100860.38;4149900;28;20016;-59
2023/08/26 06:02:53;;;;;;;;;;;;;;;21.81;53.06;100868.41;4149747;28;19926;-58
2023/08/26 06:04:55;;;;;;;;;;;;;;;21.80;53.08;100864.03;4149696;28;19988;-59
2023/08/26 06:06:57;;;;;;;;;;;;;;;21.80;52.93;100860.47;4149800;28;20390;-59
2023/08/26 06:08:59;;;;;;;;;;;;;;;21.79;52.97;100865.00;4148457;28;19925;-58
2023/08/26 06:11:00;;;;;;;;;;;;;;;21.79;53.06;100869.53;4149680;28;19931;-58
2023/08/26 06:13:02;;;;;;;;;;;;;;;21.79;52.85;100864.16;4149073;28;19933;-59
2023/08/26 06:15:04;;;;;;;;;;;;;;;21.79;53.35;100865.00;4149467;28;19988;-59
2023/08/26 06:17:05;;;;;;;;;;;;;;;21.78;53.16;100868.66;4149195;28;19925;-59
2023/08/26 06:19:07;;;;;;;;;;;;;;;21.79;53.11;100866.84;4148595;28;19932;-58
2023/08/26 06:21:09;;;;;;;;;;;;;;;21.78;53.19;100867.81;4149353;28;19926;-59
2023/08/26 06:23:11;;;;;;;;;;;;;;;21.78;53.13;100870.47;4148353;28;19979;-59
2023/08/26 06:25:12;;;;;;;;;;;;;;;21.78;53.04;100867.81;4149438;28;20074;-58
2023/08/26 06:27:14;;;;;;;;;;;;;;;21.78;52.99;100870.47;4149209;28;20016;-59
2023/08/26 06:29:17;;;;;;;;;;;;;;;21.75;52.89;100868.03;4148236;28;19983;-58
2023/08/26 06:31:18;;;;;;;;;;;;;;;21.75;53.36;100871.59;4149507;28;19926;-59
2023/08/26 06:33:20;;;;;;;;;;;;;;;21.75;52.98;100870.72;4149291;28;19926;-58
2023/08/26 06:35:26;;;;;;;;;;;;;;;21.75;52.89;100865.38;4149353;28;19953;-59
2023/08/26 06:37:28;;;;;;;;;;;;;;;21.74;53.07;100860.97;4148264;28;20512;-59
2023/08/26 06:39:29;;;;;;;;;;;;;;;21.74;53.21;100863.66;4148173;28;20303;-59
2023/08/26 06:41:32;;;;;;;;;;;;;;;21.73;53.00;100865.50;4148971;28;20334;-59
2023/08/26 06:43:34;;;;;;;;;;;;;;;21.73;53.31;100870.84;4149003;28;19925;-59
2023/08/26 06:45:36;;;;;;;;;;;;;;;21.73;53.26;100865.50;4149034;28;20385;-58
2023/08/26 06:47:39;;;;;;;;;;;;;;;21.73;53.06;100864.66;4149111;28;19925;-59
2023/08/26 06:49:40;;;;;;;;;;;;;;;21.73;53.15;100870.00;4148039;28;19930;-58
2023/08/26 06:51:42;;;;;;;;;;;;;;;21.73;53.02;100856.63;4149114;28;20016;-58
2023/08/26 06:53:43;;;;;;;;;;;;;;;21.70;53.31;100863.06;4148876;28;19936;-58
2023/08/26 06:55:45;;;;;;;;;;;;;;;21.70;52.97;100858.56;4147247;28;20133;-58
2023/08/26 06:57:46;;;;;;;;;;;;;;;21.70;53.09;100860.38;4147846;28;19926;-59
2023/08/26 06:59:48;;;;;;;;;;;;;;;21.70;53.28;100863.91;4148028;28;19953;-61
2023/08/26 07:01:49;;;;;;;;;;;;;;;21.69;53.40;100861.38;4148950;28;19926;-58
2023/08/26 07:03:53;;;;;;;;;;;;;;;21.69;53.37;100861.38;4148748;28;19925;-58
2023/08/26 07:05:54;;;;;;;;;;;;;;;21.69;53.36;100861.38;4148864;28;19964;-58
2023/08/26 07:07:56;;;;;;;;;;;;;;;21.68;53.51;100857.84;4148814;28;19965;-58
2023/08/26 07:09:57;;;;;;;;;;;;;;;21.68;53.36;100859.66;4147318;28;19948;-58
2023/08/26 07:11:59;;;;;;;;;;;;;;;21.68;53.00;100857.00;4148756;28;19925;-58
2023/08/26 07:14:03;;;;;;;;;;;;;;;21.66;53.06;100857.09;4148493;28;19925;-59
2023/08/26 07:16:05;;;;;;;;;;;;;;;21.67;52.94;100860.63;4148523;28;20016;-58
2023/08/26 07:18:06;;;;;;;;;;;;;;;21.67;52.91;100866.00;4147345;28;19926;-58
2023/08/26 07:20:10;;;;;;;;;;;;;;;21.67;52.97;100872.19;4148028;28;19984;-59
2023/08/26 07:22:12;;;;;;;;;;;;;;;21.67;52.92;100863.31;4148650;28;19925;-59
2023/08/26 07:24:15;;;;;;;;;;;;;;;21.67;53.37;100868.66;4148150;28;19925;-58
2023/08/26 07:26:16;;;;;;;;;;;;;;;21.67;53.20;100866.00;4147284;28;20090;-59
2023/08/26 07:28:18;;;;;;;;;;;;;;;21.67;52.90;100857.97;4147555;28;20015;-59
2023/08/26 07:30:19;;;;;;;;;;;;;;;21.68;52.87;100862.34;4148297;28;19932;-58
2023/08/26 07:32:21;;;;;;;;;;;;;;;21.67;53.13;100853.44;4148318;28;19926;-57
2023/08/26 07:34:23;;;;;;;;;;;;;;;21.70;52.71;100852.34;4148307;28;19925;-59
2023/08/26 07:36:24;;;;;;;;;;;;;;;21.72;52.56;100853.09;4148274;28;19948;-59
2023/08/26 07:38:26;;;;;;;;;;;;;;;21.73;52.56;100851.28;4147415;28;19925;-59
2023/08/26 07:40:28;;;;;;;;;;;;;;;21.73;52.54;100848.59;4146704;28;19926;-60
2023/08/26 07:42:38;;;;;;;;;;;;;;;21.75;52.74;100857.34;4148367;28;19973;-60
2023/08/26 07:44:39;;;;;;;;;;;;;;;21.76;52.26;100851.00;4148201;28;19926;-58
2023/08/26 07:46:41;;;;;;;;;;;;;;;21.75;52.29;100852.84;4147142;28;20353;-59
2023/08/26 07:48:45;;;;;;;;;;;;;;;21.78;52.34;100849.91;4146086;28;20390;-59
2023/08/26 07:50:47;;;;;;;;;;;;;;;21.79;52.29;100859.66;4148075;28;20390;-59
2023/08/26 07:52:49;;;;;;;;;;;;;;;21.78;52.21;100859.78;4148266;28;19930;-59
2023/08/26 07:54:51;;;;;;;;;;;;;;;21.76;52.05;100857.19;4147558;28;20493;-59
2023/08/26 07:56:52;;;;;;;;;;;;;;;21.75;52.23;100862.69;4148058;28;19925;-57
2023/08/26 07:58:54;;;;;;;;;;;;;;;21.77;52.30;100866.94;4146997;28;19926;-59
2023/08/26 08:00:55;;;;;;;;;;;;;;;21.79;52.07;100870.34;4147722;28;20032;-59
2023/08/26 08:02:57;;;;;;;;;;;;;;;21.80;52.01;100868.50;4147852;28;19933;-59
2023/08/26 08:04:59;;;;;;;;;;;;;;;21.79;52.31;100870.34;4147815;28;19932;-59
2023/08/26 08:07:00;;;;;;;;;;;;;;;21.81;51.99;100879.13;4148236;28;20298;-59
2023/08/26 08:09:02;;;;;;;;;;;;;;;21.83;52.22;100879.81;4146645;28;19925;-59
2023/08/26 08:11:03;;;;;;;;;;;;;;;21.84;52.18;100870.00;4147701;28;19925;-59
2023/08/26 08:13:05;;;;;;;;;;;;;;;21.85;51.97;100869.84;4147724;28;19976;-59
2023/08/26 08:15:08;;;;;;;;;;;;;;;21.89;51.58;100872.28;4147601;28;20365;-59
2023/08/26 08:17:09;;;;;;;;;;;;;;;21.88;52.02;100874.09;4147856;28;19964;-59
2023/08/26 08:19:11;;;;;;;;;;;;;;;21.90;51.77;100880.19;4146974;28;19925;-59
2023/08/26 08:21:17;;;;;;;;;;;;;;;21.87;51.55;100883.09;4147811;28;19926;-58
2023/08/26 08:23:19;;;;;;;;;;;;;;;21.88;51.93;100890.16;4147431;28;19929;-59
2023/08/26 08:25:21;;;;;;;;;;;;;;;21.89;51.63;100893.72;4147708;28;19953;-60
2023/08/26 08:27:22;;;;;;;;;;;;;;;21.86;51.82;100903.69;4147768;28;19926;-59
2023/08/26 08:29:24;;;;;;;;;;;;;;;21.85;51.64;100904.66;4146858;28;20028;-59
2023/08/26 08:31:25;;;;;;;;;;;;;;;21.84;51.96;100908.31;4147569;28;19933;-59
2023/08/26 08:33:33;;;;;;;;;;;;;;;21.84;51.78;100902.13;4147701;28;19936;-59
2023/08/26 08:35:35;;;;;;;;;;;;;;;21.83;51.73;100903.91;4147886;28;19929;-59
2023/08/26 08:37:37;;;;;;;;;;;;;;;21.83;51.73;100901.25;4147127;28;20019;-58
2023/08/26 08:39:38;;;;;;;;;;;;;;;21.83;51.85;100905.75;4146593;28;19949;-58
2023/08/26 08:41:41;;;;;;;;;;;;;;;21.81;51.82;100903.22;4147558;28;19926;-58
2023/08/26 08:43:44;;;;;;;;;;;;;;;21.81;51.97;100905.91;4147407;28;20346;-58
2023/08/26 08:45:46;;;;;;;;;;;;;;;21.81;52.16;100907.69;4147753;28;19925;-58
2023/08/26 08:47:50;;;;;;;;;;;;;;;21.79;52.03;100910.50;4152461;28;19965;-59
2023/08/26 08:49:52;;;;;;;;;;;;;;;21.81;51.78;100911.25;4151978;28;19933;-59
2023/08/26 08:51:55;;;;;;;;;;;;;;;21.80;51.66;100909.53;4152896;28;19933;-58
2023/08/26 08:53:57;;;;;;;;;;;;;;;21.80;51.89;100912.22;4152967;28;20417;-59
2023/08/26 08:56:00;;;;;;;;;;;;;;;21.80;52.13;100908.66;4152672;28;20016;-58
2023/08/26 08:58:02;;;;;;;;;;;;;;;21.79;51.70;100910.50;4152930;28;19948;-59
2023/08/26 09:00:04;;;;;;;;;;;;;;;21.79;52.02;100912.34;4151845;28;20311;-59
2023/08/26 09:02:06;;;;;;;;;;;;;;;21.78;51.69;100916.84;4152901;28;19972;-58
2023/08/26 09:04:07;;;;;;;;;;;;;;;21.78;51.65;100914.16;4151705;28;19991;-59
2023/08/26 09:06:09;;;;;;;;;;;;;;;21.81;51.58;100918.41;4152511;28;19925;-59
2023/08/26 09:08:10;;;;;;;;;;;;;;;21.81;51.74;100918.41;4152733;28;19925;-59
2023/08/26 09:10:12;;;;;;;;;;;;;;;21.81;51.56;100907.69;4151656;28;19926;-58
2023/08/26 09:12:14;;;;;;;;;;;;;;;21.81;51.82;100915.72;4152687;28;19929;-58
2023/08/26 09:14:15;;;;;;;;;;;;;;;21.79;51.76;100915.88;4152627;28;19929;-59
2023/08/26 09:16:29;;;;;;;;;;;;;;;21.79;51.83;100928.41;4136443;28;19933;-58
2023/08/26 09:18:38;;;;;;;;;;;;;;;21.78;51.79;100924.88;4135926;28;20215;-59
2023/08/26 09:20:47;;;;;;;;;;;;;;;21.79;51.65;100928.41;4135811;28;19932;-59
2023/08/26 09:23:04;;;;;;;;;;;;;;;21.78;51.88;100932.91;4136411;28;20395;-59
2023/08/26 09:25:05;;;;;;;;;;;;;;;21.76;51.87;100926.81;4136596;28;19929;-58
2023/08/26 09:27:07;;;;;;;;;;;;;;;21.79;51.64;100920.38;4136445;28;20376;-58
2023/08/26 09:29:18;;;;;;;;;;;;;;;21.80;51.95;100919.38;4135642;28;20040;-59
2023/08/26 09:31:20;;;;;;;;;;;;;;;21.79;51.97;100926.56;4136304;28;19968;-58
2023/08/26 09:33:22;;;;;;;;;;;;;;;21.83;51.60;100921.81;4135183;28;19933;-59
2023/08/26 09:35:24;;;;;;;;;;;;;;;21.83;51.72;100922.66;4136299;28;19929;-58
2023/08/26 09:37:31;;;;;;;;;;;;;;;21.83;51.59;100922.66;4136401;28;20046;-59
2023/08/26 09:39:33;;;;;;;;;;;;;;;21.84;51.54;100924.38;4135314;28;20181;-59
2023/08/26 09:41:34;;;;;;;;;;;;;;;21.86;51.67;100918.91;4136286;28;19953;-59
2023/08/26 09:43:39;;;;;;;;;;;;;;;21.88;51.75;100916.94;4136220;28;19930;-59
2023/08/26 09:45:41;;;;;;;;;;;;;;;21.91;51.41;100916.72;4136371;28;19998;-59
2023/08/26 09:47:44;;;;;;;;;;;;;;;21.93;51.08;100912.06;4134923;28;20052;-59
2023/08/26 09:49:48;;;;;;;;;;;;;;;21.94;50.97;100905.75;4134886;28;20334;-59
2023/08/26 09:51:50;;;;;;;;;;;;;;;21.93;51.16;100903.19;4136250;28;19957;-59
2023/08/26 09:53:53;;;;;;;;;;;;;;;21.94;50.92;100903.06;4136286;28;19973;-59
2023/08/26 09:55:56;;;;;;;;;;;;;;;21.94;50.76;100903.06;4136248;28;19936;-59
2023/08/26 09:57:58;;;;;;;;;;;;;;;21.94;50.65;100895.03;4135152;28;20292;-58
2023/08/26 10:00:00;;;;;;;;;;;;;;;21.93;50.37;100906.72;4132693;28;19969;-59
2023/08/26 10:02:03;;;;;;;;;;;;;;;21.93;50.57;100908.53;4148718;28;19929;-59
2023/08/26 10:04:09;;;;;;;;;;;;;;;21.92;50.59;100907.72;4132062;28;20338;-58
2023/08/26 10:06:12;;;;;;;;;;;;;;;21.92;50.50;100909.53;4133540;28;20017;-59
2023/08/26 10:08:13;;;;;;;;;;;;;;;21.90;50.81;100909.66;4133636;28;20359;-59
2023/08/26 10:10:19;;;;;;;;;;;;;;;21.91;50.64;100899.78;4132322;28;19937;-59
2023/08/26 10:12:25;;;;;;;;;;;;;;;21.89;50.96;100902.59;4133518;28;19932;-57
2023/08/26 10:14:28;;;;;;;;;;;;;;;21.90;50.39;100906.13;4134778;28;19929;-59
2023/08/26 10:16:31;;;;;;;;;;;;;;;21.89;50.81;100904.44;4149750;28;19929;-58
2023/08/26 10:18:43;;;;;;;;;;;;;;;21.89;50.98;100901.75;4149437;28;19929;-58
2023/08/26 10:20:45;;;;;;;;;;;;;;;21.89;50.77;100893.72;4147544;28;19930;-60
2023/08/26 10:22:47;;;;;;;;;;;;;;;21.91;50.79;100900.66;4149543;28;19930;-58
2023/08/26 10:24:49;;;;;;;;;;;;;;;21.91;50.64;100900.66;4149510;28;19968;-58
2023/08/26 10:26:50;;;;;;;;;;;;;;;21.90;50.44;100895.44;4149661;28;19925;-58